Time;durP1;ratioP1;P1;durP2;ratioP2;P2;SDS_P1;SDS_P2;PMS_P1;PMS_P2;Temp;Humidity;BMP_temperature;BMP_pressure;BME280_temperature;BME280_humidity;BME280_pressure;Samples;Min_cycle;Max_cycle;Signal;HPM_P1;HPM_P2
2023/10/05 00:04:27;;;;;;;0.10;0.10;;;11.60;99.90;;;;;;4959925;28;20212;-81
2023/10/05 00:06:56;;;;;;;0.10;0.10;;;11.60;99.90;;;;;;4957587;28;20183;-82
2023/10/05 00:09:24;;;;;;;0.10;0.10;;;11.60;99.90;;;;;;4957829;28;20184;-81
2023/10/05 00:11:53;;;;;;;0.10;0.10;;;11.50;99.90;;;;;;4963584;28;20703;-82
2023/10/05 00:14:19;;;;;;;0.10;0.10;;;11.60;99.90;;;;;;4962733;28;20917;-81
2023/10/05 00:16:47;;;;;;;0.10;0.10;;;11.60;99.90;;;;;;4962529;28;20196;-81
2023/10/05 00:19:15;;;;;;;0.00;0.00;;;11.60;99.90;;;;;;4961744;28;20188;-82
2023/10/05 00:21:50;;;;;;;0.10;0.10;;;11.60;99.90;;;;;;4977762;28;20213;-81
2023/10/05 00:24:25;;;;;;;0.10;0.10;;;11.60;99.90;;;;;;4961045;28;20251;-81
2023/10/05 00:26:51;;;;;;;0.10;0.10;;;11.70;99.90;;;;;;4961222;28;20190;-81
2023/10/05 00:29:34;;;;;;;0.10;0.10;;;11.60;99.90;;;;;;4961300;28;20192;-81
2023/10/05 00:32:00;;;;;;;0.10;0.10;;;11.60;99.90;;;;;;4961036;28;20216;-81
2023/10/05 00:34:32;;;;;;;0.10;0.10;;;11.50;99.90;;;;;;4963318;28;20223;-81
2023/10/05 00:36:58;;;;;;;0.10;0.10;;;11.60;99.90;;;;;;4960989;28;20653;-81
2023/10/05 00:39:25;;;;;;;0.10;0.10;;;11.60;99.90;;;;;;4960289;28;20200;-81
2023/10/05 00:42:14;;;;;;;0.10;0.10;;;11.60;99.90;;;;;;4960992;28;20208;-81
2023/10/05 00:44:40;;;;;;;0.10;0.10;;;11.60;99.90;;;;;;4963396;28;20216;-81
2023/10/05 00:47:06;;;;;;;0.10;0.10;;;11.60;99.90;;;;;;4961135;28;20180;-82
2023/10/05 00:54:40;;;;;;;0.00;0.00;;;11.50;99.90;;;;;;4963807;28;20200;-81
2023/10/05 00:57:09;;;;;;;0.10;0.10;;;11.50;99.90;;;;;;4962780;28;20197;-81
2023/10/05 00:59:36;;;;;;;0.10;0.10;;;11.40;99.90;;;;;;4961717;28;20189;-82
2023/10/05 01:14:52;;;;;;;0.10;0.10;;;11.40;99.90;;;;;;4975063;28;20485;-82
2023/10/05 01:17:20;;;;;;;0.10;0.10;;;11.50;99.90;;;;;;5000969;28;20665;-82
2023/10/05 01:19:59;;;;;;;0.07;0.07;;;11.50;99.90;;;;;;4968467;28;20218;-81
2023/10/05 01:22:33;;;;;;;0.10;0.10;;;11.50;99.90;;;;;;4966349;28;20563;-81
2023/10/05 01:25:00;;;;;;;0.10;0.10;;;11.50;99.90;;;;;;4982756;28;20547;-82
2023/10/05 01:27:29;;;;;;;0.00;0.00;;;11.60;99.90;;;;;;4965880;28;20192;-81
2023/10/05 01:29:55;;;;;;;0.10;0.10;;;11.60;99.90;;;;;;4966525;28;20192;-81
2023/10/05 01:32:21;;;;;;;0.10;0.10;;;11.70;99.90;;;;;;4966309;28;20287;-81
2023/10/05 01:34:53;;;;;;;0.10;0.10;;;11.70;99.90;;;;;;4963816;28;20673;-81
2023/10/05 01:37:22;;;;;;;0.10;0.10;;;11.80;99.90;;;;;;4963482;28;20181;-81
2023/10/05 01:39:48;;;;;;;0.10;0.10;;;11.80;99.90;;;;;;4965067;28;20191;-81
2023/10/05 01:42:14;;;;;;;0.07;0.07;;;11.80;99.90;;;;;;4964986;28;20216;-81
2023/10/05 01:44:41;;;;;;;0.00;0.00;;;11.80;99.90;;;;;;4965325;28;20211;-81
2023/10/05 01:47:07;;;;;;;0.10;0.10;;;11.80;99.90;;;;;;4963725;28;20820;-82
2023/10/05 01:49:33;;;;;;;0.10;0.10;;;11.80;99.90;;;;;;4964152;28;20180;-81
2023/10/05 01:51:59;;;;;;;0.10;0.10;;;11.80;99.90;;;;;;4965173;28;20204;-81
2023/10/05 01:54:27;;;;;;;0.10;0.10;;;11.80;99.90;;;;;;4964682;28;20188;-81
2023/10/05 01:56:54;;;;;;;0.10;0.10;;;11.80;99.90;;;;;;4964854;28;20189;-81
2023/10/05 01:59:24;;;;;;;0.10;0.10;;;11.70;99.90;;;;;;4962971;28;20186;-81
2023/10/05 02:01:50;;;;;;;0.10;0.10;;;11.50;99.90;;;;;;4963546;28;20292;-81
2023/10/05 02:04:16;;;;;;;0.10;0.10;;;11.20;99.90;;;;;;4962746;28;20300;-82
2023/10/05 02:06:42;;;;;;;0.10;0.10;;;11.00;99.90;;;;;;4964516;28;20185;-81
2023/10/05 02:09:10;;;;;;;0.10;0.10;;;11.00;99.90;;;;;;4961831;28;20192;-81
2023/10/05 02:11:36;;;;;;;0.10;0.10;;;11.10;99.90;;;;;;4963274;28;20235;-81
2023/10/05 02:14:03;;;;;;;0.10;0.10;;;11.20;99.90;;;;;;4977130;28;20645;-82
2023/10/05 02:16:30;;;;;;;0.10;0.10;;;11.20;99.90;;;;;;4964664;28;20312;-81
2023/10/05 02:18:56;;;;;;;0.03;0.03;;;11.30;99.90;;;;;;4960411;28;20218;-81
2023/10/05 02:21:30;;;;;;;0.00;0.00;;;11.40;99.90;;;;;;4960724;28;20218;-81
2023/10/05 02:23:58;;;;;;;0.10;0.10;;;11.50;99.90;;;;;;4962449;28;20231;-81
2023/10/05 02:26:27;;;;;;;0.00;0.00;;;11.50;99.90;;;;;;4962116;28;20192;-81
2023/10/05 02:28:55;;;;;;;0.10;0.10;;;11.60;99.90;;;;;;4961802;28;20192;-82
2023/10/05 02:31:21;;;;;;;0.10;0.10;;;11.60;99.90;;;;;;4962023;28;20185;-81
2023/10/05 02:33:47;;;;;;;0.10;0.10;;;11.70;99.90;;;;;;4960994;28;20188;-81
2023/10/05 02:36:26;;;;;;;0.00;0.00;;;11.70;99.90;;;;;;4959235;28;20565;-81
2023/10/05 02:38:56;;;;;;;0.10;0.10;;;11.70;99.90;;;;;;4961457;28;20183;-81
2023/10/05 02:41:37;;;;;;;0.10;0.10;;;11.70;99.90;;;;;;4962192;28;20196;-81
2023/10/05 02:47:12;;;;;;;0.10;0.10;;;11.60;99.90;;;;;;4954304;28;20210;-81
2023/10/05 02:49:43;;;;;;;0.10;0.10;;;11.60;99.90;;;;;;4960942;28;20181;-81
2023/10/05 02:52:13;;;;;;;0.10;0.10;;;11.60;99.90;;;;;;4962330;28;20209;-81
2023/10/05 02:54:42;;;;;;;0.00;0.00;;;11.50;99.90;;;;;;4960311;28;20636;-81
2023/10/05 02:57:14;;;;;;;0.10;0.10;;;11.50;99.90;;;;;;4959772;28;20184;-81
2023/10/05 02:59:40;;;;;;;0.10;0.10;;;11.60;99.90;;;;;;4963061;28;20184;-81
2023/10/05 03:02:07;;;;;;;0.10;0.10;;;11.70;99.90;;;;;;4961079;28;20212;-81
2023/10/05 03:07:18;;;;;;;0.10;0.10;;;11.60;99.90;;;;;;4961654;28;20192;-81
2023/10/05 03:09:46;;;;;;;0.10;0.10;;;11.70;99.90;;;;;;4961746;28;20189;-81
2023/10/05 03:12:12;;;;;;;0.10;0.10;;;11.50;99.90;;;;;;4960927;28;20230;-82
2023/10/05 03:14:44;;;;;;;0.10;0.10;;;11.30;99.90;;;;;;4962310;28;20191;-81
2023/10/05 03:17:19;;;;;;;0.10;0.10;;;11.10;99.90;;;;;;4960922;28;20532;-81
2023/10/05 03:19:45;;;;;;;0.10;0.10;;;11.10;99.90;;;;;;4960377;28;20251;-81
2023/10/05 03:22:13;;;;;;;0.10;0.10;;;11.20;99.90;;;;;;4959400;28;20231;-81
2023/10/05 03:24:44;;;;;;;0.10;0.10;;;11.20;99.90;;;;;;4959745;28;20209;-81
2023/10/05 03:27:10;;;;;;;0.10;0.10;;;11.40;99.90;;;;;;4976406;28;20177;-81
2023/10/05 03:29:38;;;;;;;11.40;10.43;;;11.40;99.90;;;;;;4959846;28;20180;-81
2023/10/05 03:34:34;;;;;;;0.10;0.10;;;11.50;99.90;;;;;;4962098;28;20184;-81
2023/10/05 03:37:07;;;;;;;0.10;0.10;;;11.50;99.90;;;;;;4960848;28;20188;-81
2023/10/05 03:39:38;;;;;;;0.10;0.10;;;11.60;99.90;;;;;;4960920;28;20188;-81
2023/10/05 03:42:05;;;;;;;0.10;0.10;;;11.60;99.90;;;;;;4959549;28;20213;-81
2023/10/05 03:44:31;;;;;;;0.10;0.10;;;11.70;99.90;;;;;;4958535;28;20270;-82
2023/10/05 03:46:57;;;;;;;0.10;0.10;;;11.60;99.90;;;;;;4966399;28;20176;-81
2023/10/05 03:49:22;;;;;;;0.10;0.10;;;11.60;99.90;;;;;;4962765;28;20232;-82
2023/10/05 03:51:51;;;;;;;0.10;0.10;;;11.60;99.90;;;;;;4964591;28;20283;-81
2023/10/05 03:54:24;;;;;;;0.10;0.10;;;11.60;99.90;;;;;;4980075;28;20264;-81
2023/10/05 03:56:50;;;;;;;0.00;0.00;;;11.60;99.90;;;;;;4962593;28;20268;-81
2023/10/05 03:59:16;;;;;;;0.10;0.10;;;11.60;99.90;;;;;;4963180;28;20200;-81
2023/10/05 04:01:48;;;;;;;0.07;0.07;;;11.60;99.90;;;;;;4964517;28;20201;-81
2023/10/05 04:04:21;;;;;;;0.00;0.00;;;11.60;99.90;;;;;;4962549;28;20712;-81
2023/10/05 04:06:51;;;;;;;0.10;0.10;;;11.70;99.90;;;;;;4963350;28;20180;-82
2023/10/05 04:09:19;;;;;;;0.10;0.10;;;11.60;99.90;;;;;;4963180;28;20177;-81
2023/10/05 04:11:45;;;;;;;0.10;0.10;;;11.70;99.90;;;;;;4961769;28;20200;-81
2023/10/05 04:14:12;;;;;;;0.07;0.07;;;11.70;99.90;;;;;;4963473;28;20185;-81
2023/10/05 04:16:38;;;;;;;0.10;0.10;;;11.60;99.90;;;;;;4962115;28;20189;-81
2023/10/05 04:19:04;;;;;;;0.10;0.10;;;11.70;99.90;;;;;;4963915;28;20212;-81
2023/10/05 04:21:31;;;;;;;0.10;0.10;;;11.70;99.90;;;;;;4963950;28;20203;-81
2023/10/05 04:23:59;;;;;;;0.10;0.10;;;11.80;99.90;;;;;;4963025;28;20212;-81
2023/10/05 04:26:32;;;;;;;0.10;0.10;;;11.70;99.90;;;;;;4954499;28;20715;-81
2023/10/05 04:29:03;;;;;;;0.10;0.10;;;11.70;99.90;;;;;;4976547;28;20172;-81
2023/10/05 04:31:30;;;;;;;0.10;0.10;;;11.70;99.90;;;;;;4959524;28;20264;-81
2023/10/05 04:33:56;;;;;;;0.10;0.10;;;11.60;99.90;;;;;;4961536;28;20180;-82
2023/10/05 04:36:25;;;;;;;0.10;0.10;;;11.60;99.90;;;;;;4959210;28;20200;-81
2023/10/05 04:38:55;;;;;;;0.00;0.00;;;11.60;99.90;;;;;;4959941;28;20283;-81
2023/10/05 04:41:28;;;;;;;0.00;0.00;;;11.60;99.90;;;;;;4961901;28;20666;-82
2023/10/05 04:43:57;;;;;;;0.10;0.10;;;11.60;99.90;;;;;;4960025;28;20664;-81
2023/10/05 04:46:23;;;;;;;0.00;0.00;;;11.70;99.90;;;;;;4963199;28;20185;-82
2023/10/05 04:48:56;;;;;;;0.07;0.07;;;11.70;99.90;;;;;;4961628;28;20184;-82
2023/10/05 04:51:30;;;;;;;0.07;0.07;;;11.70;99.90;;;;;;4959837;28;20177;-82
2023/10/05 04:53:58;;;;;;;0.10;0.10;;;11.70;99.90;;;;;;4963213;28;20180;-81
2023/10/05 05:07:02;;;;;;;0.10;0.10;;;11.80;99.90;;;;;;4961656;28;20180;-81
2023/10/05 05:09:34;;;;;;;0.10;0.10;;;11.70;99.90;;;;;;4960736;28;20267;-81
2023/10/05 05:12:05;;;;;;;0.00;0.00;;;11.70;99.90;;;;;;4961049;28;20248;-81
2023/10/05 05:14:44;;;;;;;0.10;0.10;;;11.70;99.90;;;;;;4959076;28;20196;-81
2023/10/05 05:17:23;;;;;;;0.10;0.10;;;11.60;99.90;;;;;;4963273;28;20307;-82
2023/10/05 05:19:52;;;;;;;0.03;0.03;;;11.60;99.90;;;;;;4960296;28;20266;-82
2023/10/05 05:22:20;;;;;;;0.10;0.10;;;11.60;99.90;;;;;;4958168;28;20578;-81
2023/10/05 05:24:47;;;;;;;0.03;0.03;;;11.60;99.90;;;;;;4959426;28;20204;-81
2023/10/05 05:29:53;;;;;;;0.10;0.10;;;11.60;99.90;;;;;;4961067;28;20182;-82
2023/10/05 05:32:19;;;;;;;0.10;0.10;;;11.60;99.90;;;;;;4963265;28;20236;-81
2023/10/05 05:34:46;;;;;;;0.00;0.00;;;11.60;99.90;;;;;;4959553;28;20219;-81
2023/10/05 05:37:28;;;;;;;0.10;0.10;;;11.60;99.90;;;;;;4961956;28;20187;-80
2023/10/05 05:40:01;;;;;;;0.10;0.10;;;11.50;99.90;;;;;;4962442;28;20189;-81
2023/10/05 05:42:30;;;;;;;0.10;0.10;;;11.50;99.90;;;;;;4962561;28;20279;-81
2023/10/05 05:44:55;;;;;;;0.00;0.00;;;11.60;99.90;;;;;;4961845;28;20200;-81
2023/10/05 05:47:31;;;;;;;0.10;0.10;;;11.60;99.90;;;;;;4960103;28;20177;-81
2023/10/05 05:50:00;;;;;;;0.00;0.00;;;11.60;99.90;;;;;;4960444;28;20177;-81
2023/10/05 05:52:26;;;;;;;0.10;0.10;;;11.60;99.90;;;;;;4960567;28;20211;-81
2023/10/05 05:54:52;;;;;;;0.10;0.10;;;11.50;99.90;;;;;;4960451;28;20193;-81
2023/10/05 05:57:20;;;;;;;0.10;0.10;;;11.60;99.90;;;;;;4963205;28;20189;-81
2023/10/05 05:59:46;;;;;;;0.10;0.10;;;11.60;99.90;;;;;;4960259;28;20238;-82
2023/10/05 06:02:12;;;;;;;0.00;0.00;;;11.60;99.90;;;;;;4961268;28;20628;-81
2023/10/05 06:04:40;;;;;;;0.00;0.00;;;11.70;99.90;;;;;;4961291;28;20200;-81
2023/10/05 06:07:13;;;;;;;0.07;0.07;;;11.70;99.90;;;;;;4960640;28;20177;-81
2023/10/05 06:09:45;;;;;;;0.10;0.10;;;11.70;99.90;;;;;;4960381;28;20188;-81
2023/10/05 06:12:11;;;;;;;0.10;0.10;;;11.70;99.90;;;;;;4960276;28;20200;-81
2023/10/05 06:14:40;;;;;;;0.10;0.10;;;11.80;99.90;;;;;;4961633;28;20189;-82
2023/10/05 06:17:09;;;;;;;0.10;0.10;;;11.90;99.90;;;;;;4960539;28;20185;-81
2023/10/05 06:19:36;;;;;;;0.00;0.00;;;11.90;99.90;;;;;;4957363;28;20275;-81
2023/10/05 06:22:03;;;;;;;0.10;0.10;;;11.90;99.90;;;;;;4960714;28;20228;-81
2023/10/05 06:24:29;;;;;;;0.00;0.00;;;11.90;99.90;;;;;;4956923;28;20215;-81
2023/10/05 06:26:55;;;;;;;0.10;0.10;;;12.00;99.90;;;;;;4990852;28;20186;-81
2023/10/05 06:29:20;;;;;;;0.10;0.10;;;12.10;99.90;;;;;;4956491;28;20184;-81
2023/10/05 06:31:46;;;;;;;0.10;0.10;;;12.20;99.90;;;;;;4958603;28;20299;-81
2023/10/05 06:34:11;;;;;;;2.20;2.03;;;12.20;99.90;;;;;;4958290;28;20196;-81
2023/10/05 06:36:37;;;;;;;0.10;0.10;;;12.30;99.90;;;;;;4959903;28;20202;-81
2023/10/05 06:39:04;;;;;;;0.10;0.10;;;12.40;99.90;;;;;;4956750;28;20189;-81
2023/10/05 06:41:30;;;;;;;0.10;0.10;;;12.40;99.90;;;;;;4973225;28;20295;-81
2023/10/05 06:43:57;;;;;;;0.10;0.10;;;12.40;99.90;;;;;;4960086;28;20657;-81
2023/10/05 06:46:26;;;;;;;0.10;0.10;;;12.60;99.90;;;;;;4958967;28;20195;-82
2023/10/05 06:48:52;;;;;;;0.10;0.10;;;12.60;99.90;;;;;;4960912;28;20231;-82
2023/10/05 06:51:28;;;;;;;0.10;0.10;;;12.60;99.90;;;;;;4960167;28;20189;-81
2023/10/05 06:53:54;;;;;;;0.00;0.00;;;12.60;99.90;;;;;;4960658;28;20173;-81
2023/10/05 06:56:20;;;;;;;0.10;0.10;;;12.70;99.90;;;;;;4955816;28;20196;-81
2023/10/05 06:58:47;;;;;;;0.07;0.07;;;12.70;99.90;;;;;;4958295;28;20200;-80
2023/10/05 07:01:12;;;;;;;0.10;0.10;;;12.80;99.90;;;;;;4960483;28;20620;-80
2023/10/05 07:03:38;;;;;;;0.10;0.10;;;12.80;99.90;;;;;;4957632;28;20312;-81
2023/10/05 07:06:04;;;;;;;0.10;0.10;;;12.80;99.90;;;;;;4958288;28;20717;-81
2023/10/05 07:08:33;;;;;;;0.10;0.10;;;12.80;99.90;;;;;;4958997;28;20263;-81
2023/10/05 07:10:59;;;;;;;0.00;0.00;;;12.90;99.90;;;;;;4958210;28;20190;-81
2023/10/05 07:13:28;;;;;;;0.00;0.00;;;12.90;99.90;;;;;;4960161;28;20209;-82
2023/10/05 07:15:55;;;;;;;0.10;0.10;;;12.90;99.90;;;;;;4959043;28;20310;-81
2023/10/05 07:18:20;;;;;;;0.10;0.10;;;12.90;99.90;;;;;;4952681;28;20201;-82
2023/10/05 07:20:46;;;;;;;0.10;0.10;;;12.90;99.90;;;;;;4962722;28;20198;-82
2023/10/05 07:23:11;;;;;;;0.10;0.10;;;13.10;99.90;;;;;;4962905;28;20291;-81
2023/10/05 07:25:38;;;;;;;0.10;0.10;;;13.20;99.90;;;;;;4960280;28;20217;-81
2023/10/05 07:28:04;;;;;;;0.10;0.10;;;13.30;99.90;;;;;;4961848;28;20192;-82
2023/10/05 07:30:30;;;;;;;0.10;0.10;;;13.30;99.90;;;;;;4962957;28;20274;-82
2023/10/05 07:32:55;;;;;;;0.10;0.10;;;13.50;99.90;;;;;;4963517;28;20313;-82
2023/10/05 07:35:21;;;;;;;0.10;0.10;;;13.60;99.90;;;;;;4960805;28;20203;-82
2023/10/05 07:37:47;;;;;;;0.10;0.10;;;13.70;99.90;;;;;;4962686;28;20185;-82
2023/10/05 07:40:13;;;;;;;0.10;0.10;;;13.80;99.90;;;;;;4960901;28;20195;-82
2023/10/05 07:42:40;;;;;;;0.10;0.10;;;13.80;99.90;;;;;;4962757;28;20268;-82
2023/10/05 07:45:11;;;;;;;0.10;0.10;;;13.90;99.90;;;;;;4961887;28;20203;-82
2023/10/05 07:47:41;;;;;;;0.10;0.10;;;14.00;99.90;;;;;;4964607;28;20178;-82
2023/10/05 07:50:10;;;;;;;0.10;0.10;;;14.00;99.90;;;;;;4962309;28;20560;-82
2023/10/05 07:52:37;;;;;;;0.10;0.10;;;14.10;99.90;;;;;;4962448;28;20698;-82
2023/10/05 07:55:05;;;;;;;0.10;0.10;;;13.90;99.90;;;;;;4960959;28;20190;-82
2023/10/05 07:57:31;;;;;;;0.10;0.10;;;14.10;99.90;;;;;;4962721;28;21128;-82
2023/10/05 07:59:57;;;;;;;0.10;0.10;;;14.30;99.90;;;;;;4963570;28;20203;-82
2023/10/05 08:02:22;;;;;;;0.13;0.13;;;14.40;99.90;;;;;;4961665;28;20308;-82
2023/10/05 08:04:48;;;;;;;0.10;0.10;;;14.50;99.90;;;;;;4964263;28;20200;-82
2023/10/05 08:07:15;;;;;;;0.10;0.10;;;14.70;99.90;;;;;;4961049;28;20204;-82
2023/10/05 08:09:44;;;;;;;0.10;0.10;;;14.80;99.90;;;;;;4960372;28;20203;-82
2023/10/05 08:12:11;;;;;;;0.10;0.10;;;15.00;99.90;;;;;;4962051;28;20208;-82
2023/10/05 08:14:37;;;;;;;0.10;0.10;;;15.20;99.90;;;;;;4978850;28;20211;-82
2023/10/05 08:17:03;;;;;;;0.10;0.10;;;15.30;99.90;;;;;;4963522;28;20182;-82
2023/10/05 08:19:29;;;;;;;0.10;0.10;;;15.40;99.90;;;;;;4961653;28;20219;-82
2023/10/05 08:21:55;;;;;;;0.10;0.10;;;15.60;99.90;;;;;;4961119;28;20678;-82
2023/10/05 08:24:24;;;;;;;0.10;0.10;;;15.70;99.90;;;;;;4962172;28;20220;-82
2023/10/05 08:26:53;;;;;;;0.10;0.10;;;15.70;99.90;;;;;;4960538;28;20196;-82
2023/10/05 08:29:22;;;;;;;0.10;0.10;;;15.70;99.90;;;;;;4961988;28;20179;-82
2023/10/05 08:31:49;;;;;;;0.10;0.10;;;15.70;99.90;;;;;;4961281;28;20200;-82
2023/10/05 08:34:20;;;;;;;0.10;0.10;;;15.90;99.90;;;;;;4961255;28;20220;-82
2023/10/05 08:36:51;;;;;;;0.10;0.10;;;15.80;99.90;;;;;;4962087;28;20239;-82
2023/10/05 08:39:22;;;;;;;0.10;0.10;;;15.80;99.90;;;;;;4959791;28;20180;-82
2023/10/05 08:41:48;;;;;;;0.10;0.10;;;15.90;99.90;;;;;;4958621;28;20668;-82
2023/10/05 08:44:38;;;;;;;0.10;0.10;;;16.10;99.90;;;;;;4959744;28;20213;-82
2023/10/05 08:47:00;;;;;;;0.10;0.10;;;16.30;99.90;;;;;;4961372;28;20564;-82
2023/10/05 08:49:27;;;;;;;0.10;0.10;;;16.50;99.90;;;;;;4959302;28;20188;-81
2023/10/05 08:51:53;;;;;;;0.10;0.10;;;16.70;99.90;;;;;;4960502;28;20228;-81
2023/10/05 08:54:21;;;;;;;0.00;0.00;;;16.60;99.90;;;;;;4945825;28;20615;-81
2023/10/05 08:56:48;;;;;;;0.10;0.10;;;16.60;99.90;;;;;;4975671;28;20189;-81
2023/10/05 08:59:14;;;;;;;0.10;0.10;;;16.60;99.90;;;;;;4959602;28;20232;-81
2023/10/05 09:01:46;;;;;;;0.10;0.10;;;16.50;99.90;;;;;;4962530;28;20209;-81
2023/10/05 09:06:59;;;;;;;0.10;0.10;;;16.50;99.90;;;;;;4961307;28;20523;-81
2023/10/05 09:09:39;;;;;;;0.10;0.10;;;16.50;99.90;;;;;;4959280;28;20606;-81
2023/10/05 09:12:42;;;;;;;0.10;0.10;;;16.70;99.90;;;;;;4958789;28;20207;-81
2023/10/05 09:17:57;;;;;;;0.10;0.10;;;16.80;99.90;;;;;;4958978;28;20204;-81
2023/10/05 09:20:24;;;;;;;0.10;0.10;;;16.80;99.90;;;;;;4961852;28;20196;-81
2023/10/05 09:22:51;;;;;;;0.10;0.10;;;17.00;99.90;;;;;;4956335;28;20351;-81
2023/10/05 09:25:26;;;;;;;0.10;0.10;;;17.00;99.90;;;;;;4959699;28;20205;-81
2023/10/05 09:27:52;;;;;;;0.10;0.10;;;17.00;99.90;;;;;;4959258;28;20177;-81
2023/10/05 09:30:21;;;;;;;0.10;0.10;;;16.90;99.90;;;;;;4960205;28;20189;-81
2023/10/05 09:32:48;;;;;;;0.10;0.10;;;16.80;99.90;;;;;;4962964;28;20223;-81
2023/10/05 09:35:27;;;;;;;0.10;0.10;;;16.70;99.90;;;;;;4960494;28;20223;-81
2023/10/05 09:38:01;;;;;;;1.03;1.03;;;16.90;99.90;;;;;;4961227;28;20188;-81
2023/10/05 09:40:28;;;;;;;0.07;0.07;;;16.90;99.90;;;;;;4961430;28;20181;-81
2023/10/05 09:43:00;;;;;;;0.10;0.10;;;17.00;99.90;;;;;;4961160;28;20271;-81
2023/10/05 09:45:29;;;;;;;0.10;0.10;;;16.90;99.90;;;;;;4961664;28;20200;-81
2023/10/05 09:47:58;;;;;;;0.10;0.10;;;16.90;99.90;;;;;;4962759;28;20193;-80
2023/10/05 09:50:26;;;;;;;0.10;0.10;;;16.80;99.90;;;;;;4964575;28;20228;-81
2023/10/05 09:52:53;;;;;;;0.10;0.10;;;16.80;99.90;;;;;;4973932;28;20235;-81
2023/10/05 09:55:20;;;;;;;0.10;0.10;;;16.90;99.90;;;;;;4960135;28;20184;-81
2023/10/05 09:57:47;;;;;;;0.10;0.10;;;17.00;99.90;;;;;;4960280;28;20226;-81
2023/10/05 10:02:59;;;;;;;0.10;0.10;;;16.90;99.90;;;;;;4962854;28;20220;-81
2023/10/05 10:05:35;;;;;;;0.10;0.10;;;16.90;99.90;;;;;;4959497;28;20295;-82
2023/10/05 10:08:12;;;;;;;0.10;0.10;;;16.90;99.90;;;;;;4956418;28;20172;-81
2023/10/05 10:10:43;;;;;;;0.10;0.10;;;17.10;99.90;;;;;;4960941;28;20192;-81
2023/10/05 10:13:12;;;;;;;0.10;0.10;;;17.10;99.90;;;;;;4960491;28;20206;-81
2023/10/05 10:15:45;;;;;;;0.10;0.10;;;17.10;99.90;;;;;;4958621;28;20266;-81
2023/10/05 10:18:14;;;;;;;0.10;0.10;;;17.10;99.90;;;;;;4956708;28;20185;-81
2023/10/05 10:20:47;;;;;;;0.10;0.10;;;17.00;99.90;;;;;;4974022;28;20193;-81
2023/10/05 10:23:26;;;;;;;0.10;0.10;;;17.10;99.90;;;;;;4958858;28;20673;-81
2023/10/05 10:26:05;;;;;;;0.10;0.10;;;17.10;99.90;;;;;;4958497;28;20205;-81
2023/10/05 10:31:19;;;;;;;0.10;0.10;;;17.10;99.90;;;;;;4959848;28;20211;-81
2023/10/05 10:33:51;;;;;;;0.10;0.10;;;17.00;99.90;;;;;;4959628;28;20187;-81
2023/10/05 10:36:39;;;;;;;0.10;0.10;;;17.10;99.90;;;;;;4960391;28;20176;-81
2023/10/05 10:39:22;;;;;;;0.10;0.10;;;17.20;99.90;;;;;;4956300;28;20271;-81
2023/10/05 10:42:01;;;;;;;0.10;0.10;;;17.20;99.90;;;;;;4956680;28;20290;-81
2023/10/05 10:44:26;;;;;;;0.10;0.10;;;17.20;99.90;;;;;;4958880;28;20246;-80
2023/10/05 10:47:08;;;;;;;0.10;0.10;;;17.20;99.90;;;;;;4962030;28;20216;-81
2023/10/05 10:49:35;;;;;;;0.10;0.10;;;17.30;99.90;;;;;;4960158;28;20215;-81
2023/10/05 10:52:02;;;;;;;0.10;0.10;;;17.30;99.90;;;;;;4962620;28;20205;-82
2023/10/05 10:54:33;;;;;;;0.10;0.10;;;17.30;99.90;;;;;;4959247;28;20550;-81
2023/10/05 10:56:59;;;;;;;0.10;0.10;;;17.30;99.90;;;;;;4976736;28;20188;-82
2023/10/05 10:59:26;;;;;;;0.10;0.10;;;17.30;99.90;;;;;;4963218;28;21228;-82
2023/10/05 11:01:59;;;;;;;0.10;0.10;;;17.30;99.90;;;;;;4960192;28;20216;-81
2023/10/05 11:04:33;;;;;;;0.10;0.10;;;17.30;99.90;;;;;;4957421;28;20247;-82
2023/10/05 11:07:05;;;;;;;0.10;0.10;;;17.20;99.90;;;;;;4957952;28;20181;-81
2023/10/05 11:09:36;;;;;;;0.10;0.10;;;17.20;99.90;;;;;;4957653;28;20211;-82
2023/10/05 11:12:10;;;;;;;0.10;0.10;;;17.20;99.90;;;;;;4957371;28;20566;-81
2023/10/05 11:14:42;;;;;;;2.10;1.90;;;17.20;99.90;;;;;;4960253;28;20172;-82
2023/10/05 11:17:34;;;;;;;0.10;0.10;;;17.20;99.90;;;;;;4958184;28;20205;-82
2023/10/05 11:20:12;;;;;;;0.10;0.10;;;17.20;99.90;;;;;;4960598;28;20678;-81
2023/10/05 11:22:42;;;;;;;0.10;0.10;;;17.20;99.90;;;;;;4960670;28;20204;-82
2023/10/05 11:25:14;;;;;;;0.10;0.10;;;17.20;99.90;;;;;;4960221;28;20204;-82
2023/10/05 11:27:57;;;;;;;0.10;0.10;;;17.20;99.90;;;;;;4957622;28;20177;-81
2023/10/05 11:30:26;;;;;;;0.10;0.10;;;17.20;99.90;;;;;;4959550;28;20681;-82
2023/10/05 11:33:05;;;;;;;0.10;0.10;;;17.30;99.90;;;;;;4959834;28;20216;-82
2023/10/05 11:35:42;;;;;;;0.10;0.10;;;17.30;99.90;;;;;;4958134;28;20184;-82
2023/10/05 11:38:14;;;;;;;0.10;0.10;;;17.40;99.90;;;;;;4958825;28;20180;-81
2023/10/05 11:40:43;;;;;;;0.10;0.10;;;17.40;99.90;;;;;;4960536;28;20610;-82
2023/10/05 11:43:13;;;;;;;0.10;0.10;;;17.40;99.90;;;;;;4957648;28;20298;-81
2023/10/05 11:45:53;;;;;;;0.10;0.10;;;17.40;99.90;;;;;;4960514;28;20681;-82
2023/10/05 11:48:20;;;;;;;0.10;0.10;;;17.40;99.90;;;;;;4959632;28;20188;-82
2023/10/05 11:50:52;;;;;;;0.10;0.10;;;17.50;99.90;;;;;;4957029;28;20668;-82
2023/10/05 11:53:23;;;;;;;0.10;0.10;;;17.40;99.90;;;;;;4959348;28;20197;-82
2023/10/05 11:55:50;;;;;;;0.10;0.10;;;17.40;99.90;;;;;;4958360;28;20873;-82
2023/10/05 11:58:17;;;;;;;0.10;0.10;;;17.40;99.90;;;;;;4958045;28;20185;-82
2023/10/05 12:00:44;;;;;;;0.10;0.10;;;17.30;99.90;;;;;;4961386;28;20202;-81
2023/10/05 12:03:11;;;;;;;0.10;0.10;;;17.30;99.90;;;;;;4960808;28;20336;-82
2023/10/05 12:05:38;;;;;;;0.10;0.10;;;17.30;99.90;;;;;;4975977;28;20217;-81
2023/10/05 12:08:05;;;;;;;0.10;0.10;;;17.30;99.90;;;;;;4960197;28;20184;-82
2023/10/05 12:10:32;;;;;;;0.10;0.10;;;17.30;99.90;;;;;;4964215;28;20254;-82
2023/10/05 12:13:01;;;;;;;0.10;0.10;;;17.30;99.90;;;;;;4959868;28;20722;-82
2023/10/05 12:15:28;;;;;;;0.10;0.10;;;17.30;99.90;;;;;;4963456;28;20898;-82
2023/10/05 12:17:54;;;;;;;0.10;0.10;;;17.20;99.90;;;;;;4962148;28;20185;-81
2023/10/05 12:20:21;;;;;;;0.10;0.10;;;17.20;99.90;;;;;;4963281;28;20275;-82
2023/10/05 12:22:49;;;;;;;0.10;0.10;;;17.20;99.90;;;;;;4963007;28;20304;-81
2023/10/05 12:25:15;;;;;;;0.10;0.10;;;17.20;99.90;;;;;;4959515;28;20208;-82
2023/10/05 12:27:41;;;;;;;0.10;0.10;;;17.30;99.90;;;;;;4978612;28;20185;-82
2023/10/05 12:30:15;;;;;;;0.10;0.10;;;17.30;99.90;;;;;;4961801;28;20522;-82
2023/10/05 12:32:41;;;;;;;0.10;0.10;;;17.30;99.90;;;;;;4980060;28;20293;-81
2023/10/05 12:35:10;;;;;;;0.10;0.10;;;17.20;99.90;;;;;;4961206;28;21152;-82
2023/10/05 12:37:37;;;;;;;0.10;0.10;;;17.30;99.90;;;;;;4964304;28;20181;-82
2023/10/05 12:40:19;;;;;;;0.10;0.10;;;17.20;99.90;;;;;;4960019;28;20196;-82
2023/10/05 12:42:54;;;;;;;0.10;0.10;;;17.30;99.90;;;;;;4957825;28;20208;-81
2023/10/05 12:45:22;;;;;;;0.10;0.10;;;17.20;99.90;;;;;;4964492;28;20201;-81
2023/10/05 12:47:52;;;;;;;0.10;0.10;;;17.30;99.90;;;;;;4975793;28;20200;-81
2023/10/05 12:50:19;;;;;;;0.10;0.10;;;17.30;99.90;;;;;;4979100;28;20172;-82
2023/10/05 12:52:45;;;;;;;0.10;0.10;;;17.30;99.90;;;;;;4968462;28;20212;-81
2023/10/05 12:55:11;;;;;;;0.10;0.10;;;17.40;99.90;;;;;;4958635;28;20690;-82
2023/10/05 12:57:36;;;;;;;0.10;0.10;;;17.40;99.90;;;;;;4961760;28;20244;-81
2023/10/05 13:00:19;;;;;;;0.10;0.10;;;17.40;99.90;;;;;;4964220;28;20243;-81
2023/10/05 13:02:47;;;;;;;0.10;0.10;;;17.40;99.90;;;;;;4965761;28;20224;-81
2023/10/05 13:05:18;;;;;;;0.10;0.10;;;17.40;99.90;;;;;;4958194;28;20220;-82
2023/10/05 13:07:43;;;;;;;0.10;0.10;;;17.50;99.90;;;;;;4963266;28;20673;-81
2023/10/05 13:10:21;;;;;;;0.10;0.10;;;17.60;99.90;;;;;;4960207;28;20231;-81
2023/10/05 13:12:51;;;;;;;0.10;0.10;;;17.60;99.90;;;;;;4963171;28;20212;-81
2023/10/05 13:15:24;;;;;;;0.10;0.10;;;17.60;99.90;;;;;;4962514;28;20208;-82
2023/10/05 13:17:50;;;;;;;0.10;0.10;;;17.70;99.90;;;;;;4962412;28;20279;-82
2023/10/05 13:20:23;;;;;;;0.10;0.10;;;17.60;99.90;;;;;;4977595;28;20236;-81
2023/10/05 13:22:49;;;;;;;0.10;0.10;;;17.70;99.90;;;;;;4960407;28;20220;-81
2023/10/05 13:25:15;;;;;;;0.10;0.10;;;17.80;99.90;;;;;;4975514;28;20216;-82
2023/10/05 13:27:42;;;;;;;0.10;0.10;;;17.70;99.90;;;;;;4960721;28;20188;-81
2023/10/05 13:30:09;;;;;;;0.10;0.10;;;17.60;99.90;;;;;;4957406;28;20196;-81
2023/10/05 13:32:34;;;;;;;0.10;0.10;;;17.60;99.90;;;;;;4962724;28;20200;-81
2023/10/05 13:35:03;;;;;;;0.10;0.10;;;17.50;99.90;;;;;;4958966;28;20577;-82
2023/10/05 13:37:29;;;;;;;0.10;0.10;;;17.50;99.90;;;;;;4958642;28;20204;-82
2023/10/05 13:40:03;;;;;;;0.10;0.10;;;17.40;99.90;;;;;;4954527;28;20605;-82
2023/10/05 13:42:34;;;;;;;0.10;0.10;;;17.30;99.90;;;;;;4958270;28;20213;-82
2023/10/05 13:45:09;;;;;;;0.10;0.10;;;17.30;99.90;;;;;;4960728;28;20193;-82
2023/10/05 13:47:35;;;;;;;0.10;0.10;;;17.40;99.90;;;;;;4957332;28;20176;-82
2023/10/05 13:50:07;;;;;;;0.10;0.10;;;17.40;99.90;;;;;;4958783;28;20191;-81
2023/10/05 13:52:34;;;;;;;0.10;0.10;;;17.50;99.90;;;;;;4959857;28;20232;-81